Time;durP1;ratioP1;P1;durP2;ratioP2;P2;SDS_P1;SDS_P2;PMS_P1;PMS_P2;Temp;Humidity;BMP_temperature;BMP_pressure;BME280_temperature;BME280_humidity;BME280_pressure;Samples;Min_cycle;Max_cycle;Signal;HPM_P1;HPM_P2
2021/05/19 00:01:49;;;;;;;4.87;4.37;;;;;;;8.20;100.00;100291.38;5071587;28;20265;-73
2021/05/19 00:04:16;;;;;;;4.03;3.73;;;;;;;8.21;100.00;100301.16;5071321;28;20170;-73
2021/05/19 00:06:42;;;;;;;4.83;4.43;;;;;;;8.22;100.00;100297.31;5071225;28;20627;-74
2021/05/19 00:09:10;;;;;;;5.67;4.60;;;;;;;8.24;100.00;100292.38;5070935;28;20580;-73
2021/05/19 00:11:36;;;;;;;4.43;4.03;;;;;;;8.29;100.00;100292.31;5071505;28;20597;-73
2021/05/19 00:14:03;;;;;;;9.60;5.57;;;;;;;8.30;100.00;100291.19;5071112;28;20217;-74
2021/05/19 00:16:29;;;;;;;6.87;2.93;;;;;;;8.30;100.00;100295.84;5071178;28;20174;-73
2021/05/19 00:18:55;;;;;;;4.77;4.37;;;;;;;8.32;100.00;100290.88;5070960;28;20745;-73
2021/05/19 00:21:20;;;;;;;1.37;1.17;;;;;;;8.32;100.00;100297.13;5071088;28;20246;-74
2021/05/19 00:23:46;;;;;;;4.33;4.03;;;;;;;8.34;100.00;100294.97;5070800;28;20273;-74
2021/05/19 00:26:11;;;;;;;3.20;2.97;;;;;;;8.34;100.00;100297.69;5070951;28;20593;-73
2021/05/19 00:28:36;;;;;;;4.13;3.73;;;;;;;8.35;100.00;100291.13;5071043;28;20200;-74
2021/05/19 00:31:05;;;;;;;4.43;4.10;;;;;;;8.37;100.00;100295.47;5070916;28;20275;-74
2021/05/19 00:33:30;;;;;;;11.23;3.60;;;;;;;8.41;99.82;100288.31;5070888;28;20209;-74
2021/05/19 00:35:56;;;;;;;4.37;3.97;;;;;;;8.41;100.00;100294.56;5070829;28;20166;-74
2021/05/19 00:38:21;;;;;;;4.57;4.00;;;;;;;8.40;99.66;100292.16;5070626;28;20175;-75
2021/05/19 00:40:48;;;;;;;3.07;2.83;;;;;;;8.39;99.55;100304.13;5070849;28;20217;-74
2021/05/19 00:43:13;;;;;;;5.10;4.10;;;;;;;8.43;99.20;100300.53;5071024;28;20186;-74
2021/05/19 00:45:39;;;;;;;4.60;4.20;;;;;;;8.39;99.75;100294.06;5070744;28;20249;-75
2021/05/19 00:48:06;;;;;;;6.40;4.13;;;;;;;8.34;99.35;100294.16;5071304;28;20401;-74
2021/05/19 00:50:32;;;;;;;4.07;3.67;;;;;;;8.33;99.71;100301.47;5070407;28;20175;-74
2021/05/19 00:52:58;;;;;;;4.73;4.30;;;;;;;8.34;99.05;100296.88;5070561;28;20179;-74
2021/05/19 00:55:23;;;;;;;4.07;3.67;;;;;;;8.29;99.65;100295.03;5070552;28;20202;-74
2021/05/19 00:57:51;;;;;;;3.90;3.10;;;;;;;8.29;99.07;100302.38;5070524;28;20209;-74
2021/05/19 01:00:19;;;;;;;4.70;4.33;;;;;;;8.27;99.19;100297.25;5070771;28;20186;-73
2021/05/19 01:02:45;;;;;;;5.93;4.77;;;;;;;8.24;99.69;100303.25;5070679;28;20307;-74
2021/05/19 01:05:17;;;;;;;4.00;3.70;;;;;;;8.22;100.00;100304.66;5070598;28;20585;-73
2021/05/19 01:09:34;;;;;;;3.93;3.63;;;;;;;8.24;100.00;100297.81;5070553;28;20534;-74
2021/05/19 01:10:28;;;;;;;4.00;3.60;;;;;;;8.25;99.94;100295.94;5070292;28;20209;-74
2021/05/19 01:12:53;;;;;;;3.17;2.93;;;;;;;8.25;100.00;100294.03;5070526;28;20175;-74
2021/05/19 01:15:20;;;;;;;3.50;3.30;;;;;;;8.25;99.78;100298.66;5070561;28;20178;-74
2021/05/19 01:17:46;;;;;;;4.30;3.90;;;;;;;8.25;100.00;100298.66;5070347;28;20175;-75
2021/05/19 01:20:12;;;;;;;4.27;3.87;;;;;;;8.26;99.99;100298.34;5070644;28;20635;-73
2021/05/19 01:22:38;;;;;;;2.47;2.17;;;;;;;8.28;100.00;100301.56;5070490;28;20639;-75
2021/05/19 01:25:03;;;;;;;3.33;2.97;;;;;;;8.30;100.00;100285.75;5070382;28;20182;-73
2021/05/19 01:27:29;;;;;;;3.20;2.60;;;;;;;8.31;100.00;100295.53;5070357;28;20576;-74
2021/05/19 01:29:57;;;;;;;4.73;3.40;;;;;;;8.33;100.00;100293.31;5070253;28;20213;-74
2021/05/19 01:32:23;;;;;;;3.47;3.17;;;;;;;8.34;100.00;100297.69;5070314;28;20183;-75
2021/05/19 01:34:49;;;;;;;3.33;3.03;;;;;;;8.34;100.00;100300.41;5070152;28;20209;-74
2021/05/19 01:37:15;;;;;;;3.63;3.23;;;;;;;8.35;100.00;100296.56;5070454;28;20258;-73
2021/05/19 01:39:42;;;;;;;3.80;3.47;;;;;;;8.38;100.00;100310.69;5070119;28;20183;-73
2021/05/19 01:42:09;;;;;;;3.27;2.97;;;;;;;8.41;100.00;100310.09;5070454;28;20175;-75
2021/05/19 01:44:35;;;;;;;2.17;1.97;;;;;;;8.43;99.91;100297.00;5070200;28;20190;-76
2021/05/19 01:47:02;;;;;;;2.83;2.63;;;;;;;8.46;100.00;100304.56;5071916;28;20175;-75
2021/05/19 01:49:30;;;;;;;4.03;3.73;;;;;;;8.48;99.92;100300.41;5070722;28;20180;-74
2021/05/19 01:52:00;;;;;;;4.03;3.70;;;;;;;8.50;99.96;100303.66;5070148;28;20171;-75
2021/05/19 01:54:28;;;;;;;5.23;3.47;;;;;;;8.52;99.72;100306.06;5070084;28;20236;-75
2021/05/19 01:56:55;;;;;;;4.27;3.67;;;;;;;8.53;100.00;100311.22;5070556;28;20173;-74
2021/05/19 01:59:21;;;;;;;3.00;2.80;;;;;;;8.54;99.59;100310.13;5069820;28;20660;-75
2021/05/19 02:01:46;;;;;;;3.43;3.13;;;;;;;8.57;99.20;100311.44;5070137;28;20167;-74
2021/05/19 02:04:14;;;;;;;2.57;2.37;;;;;;;8.57;99.66;100308.72;5072866;28;20378;-75
2021/05/19 02:07:06;;;;;;;3.70;3.37;;;;;;;8.60;99.55;100308.09;5073606;28;20190;-74
2021/05/19 02:09:31;;;;;;;3.17;2.87;;;;;;;8.60;99.11;100299.94;5071211;28;20265;-75
2021/05/19 02:11:57;;;;;;;7.90;3.57;;;;;;;8.62;99.89;100305.88;5073576;28;20257;-74
2021/05/19 02:14:23;;;;;;;2.33;2.17;;;;;;;8.63;99.55;100312.94;5073457;28;20671;-76
2021/05/19 02:16:49;;;;;;;1.80;1.70;;;;;;;8.62;99.19;100314.84;5072195;28;20178;-74
2021/05/19 02:19:15;;;;;;;3.47;3.17;;;;;;;8.61;99.12;100312.44;5073285;28;20557;-75
2021/05/19 02:21:48;;;;;;;4.00;3.13;;;;;;;8.61;99.45;100310.53;5073462;28;20178;-75
2021/05/19 02:24:15;;;;;;;5.87;5.03;;;;;;;8.60;99.23;100313.56;5073528;28;20212;-74
2021/05/19 02:26:42;;;;;;;3.53;3.10;;;;;;;8.63;99.56;100321.09;5073302;28;20171;-75
2021/05/19 02:29:08;;;;;;;3.20;3.00;;;;;;;8.63;98.90;100312.94;5073309;28;20202;-76
2021/05/19 02:31:34;;;;;;;4.63;3.10;;;;;;;8.62;99.80;100311.31;5073175;28;20179;-75
2021/05/19 02:33:59;;;;;;;3.47;3.17;;;;;;;8.60;99.53;100316.28;5073093;28;20624;-75
2021/05/19 02:36:25;;;;;;;3.90;3.60;;;;;;;8.59;99.32;100311.94;5073107;28;20544;-75
2021/05/19 02:38:51;;;;;;;1.07;1.00;;;;;;;8.59;99.03;100315.47;5071669;28;20163;-74
2021/05/19 02:41:16;;;;;;;3.17;2.87;;;;;;;8.56;99.78;100310.63;5072976;28;20190;-75
2021/05/19 02:43:42;;;;;;;11.10;3.47;;;;;;;8.57;99.85;100309.50;5072961;28;20587;-75
2021/05/19 02:46:07;;;;;;;4.57;4.17;;;;;;;8.55;100.00;100316.38;5072840;28;20604;-75
2021/05/19 02:48:33;;;;;;;3.80;3.43;;;;;;;8.56;99.77;100324.25;5072734;28;20260;-75
2021/05/19 02:50:59;;;;;;;6.37;3.90;;;;;;;8.55;99.95;100314.47;5072759;28;20642;-75
2021/05/19 02:53:24;;;;;;;2.80;2.60;;;;;;;8.56;99.84;100315.25;5072716;28;20205;-75
2021/05/19 02:55:49;;;;;;;3.50;3.20;;;;;;;8.56;99.93;100318.00;5073068;28;20175;-74
2021/05/19 02:58:15;;;;;;;3.90;3.60;;;;;;;8.54;100.00;100326.47;5072647;28;20240;-75
2021/05/19 03:00:41;;;;;;;4.47;4.07;;;;;;;8.56;99.73;100326.97;5071241;28;20229;-74
2021/05/19 03:03:06;;;;;;;3.13;2.87;;;;;;;8.57;99.75;100325.06;5072612;28;20653;-75
2021/05/19 03:05:32;;;;;;;5.73;5.23;;;;;;;8.57;100.00;100333.22;5072490;28;20181;-74
2021/05/19 03:07:58;;;;;;;3.17;2.93;;;;;;;8.57;99.69;100333.22;5072420;28;20182;-75
2021/05/19 03:10:23;;;;;;;3.67;3.30;;;;;;;8.58;99.79;100330.19;5072356;28;20253;-74
2021/05/19 03:12:51;;;;;;;9.37;3.93;;;;;;;8.58;99.85;100334.84;5072342;28;20185;-75
2021/05/19 03:15:18;;;;;;;4.00;3.60;;;;;;;8.55;99.93;100325.34;5072074;28;20681;-73
2021/05/19 03:17:44;;;;;;;2.10;2.00;;;;;;;8.52;100.00;100330.56;5072093;28;20178;-75
2021/05/19 03:20:10;;;;;;;5.00;4.17;;;;;;;8.48;100.00;100327.66;5072394;28;20174;-76
2021/05/19 03:22:36;;;;;;;3.77;3.40;;;;;;;8.47;100.00;100330.66;5072129;28;20546;-75
2021/05/19 03:25:01;;;;;;;4.10;3.80;;;;;;;8.47;100.00;100330.66;5072047;28;20180;-74
2021/05/19 03:27:26;;;;;;;3.63;3.33;;;;;;;8.47;100.00;100336.13;5072192;28;20174;-76
2021/05/19 03:29:53;;;;;;;4.40;3.67;;;;;;;8.44;100.00;100321.19;5072024;28;20677;-75
2021/05/19 03:32:18;;;;;;;4.07;3.70;;;;;;;8.43;100.00;100330.47;5072064;28;20189;-75
2021/05/19 03:34:44;;;;;;;3.40;3.00;;;;;;;8.41;100.00;100326.44;5071880;28;20202;-75
2021/05/19 03:37:09;;;;;;;4.53;4.13;;;;;;;8.40;100.00;100333.00;5071920;28;20255;-75
2021/05/19 03:39:34;;;;;;;6.03;3.83;;;;;;;8.37;100.00;100331.66;5072148;28;20264;-74
2021/05/19 03:42:00;;;;;;;4.93;4.47;;;;;;;8.33;100.00;100331.41;5071895;28;20171;-74
2021/05/19 03:44:25;;;;;;;4.37;4.03;;;;;;;8.33;100.00;100342.31;5071753;28;20182;-74
2021/05/19 03:46:53;;;;;;;3.03;2.83;;;;;;;8.28;100.00;100341.59;5071701;28;20419;-76
2021/05/19 03:49:18;;;;;;;3.23;2.93;;;;;;;8.23;100.00;100334.31;5071561;28;20178;-74
2021/05/19 03:51:44;;;;;;;6.07;5.53;;;;;;;8.21;100.00;100341.97;5071729;28;20691;-75
2021/05/19 03:54:10;;;;;;;5.00;4.33;;;;;;;8.18;100.00;100333.59;5070293;28;20293;-75
2021/05/19 03:56:35;;;;;;;2.77;2.50;;;;;;;8.16;100.00;100338.53;5071591;28;20316;-74
2021/05/19 03:59:01;;;;;;;4.03;3.73;;;;;;;8.16;100.00;100347.50;5070056;28;20194;-74
2021/05/19 04:01:26;;;;;;;3.87;3.67;;;;;;;8.15;100.00;100345.88;5071414;28;20175;-76
2021/05/19 04:03:51;;;;;;;3.93;3.57;;;;;;;8.16;100.00;100339.34;5069994;28;20182;-75
2021/05/19 04:06:21;;;;;;;4.90;3.93;;;;;;;8.16;100.00;100336.63;5071422;28;20171;-74
2021/05/19 04:08:47;;;;;;;2.70;1.90;;;;;;;8.19;100.00;100344.19;5071275;28;20562;-74
2021/05/19 04:11:13;;;;;;;4.73;4.33;;;;;;;8.20;100.00;100353.16;5071535;28;20266;-74
2021/05/19 04:13:38;;;;;;;4.57;4.17;;;;;;;8.23;100.00;100353.34;5071138;28;20198;-74
2021/05/19 04:16:04;;;;;;;8.77;5.23;;;;;;;8.25;100.00;100364.78;5071281;28;20174;-75
2021/05/19 04:18:30;;;;;;;4.73;4.33;;;;;;;8.24;100.00;100346.81;5071027;28;20171;-74
2021/05/19 04:20:55;;;;;;;5.50;5.00;;;;;;;8.24;100.00;100351.44;5071172;28;20182;-75
2021/05/19 04:23:22;;;;;;;5.63;5.13;;;;;;;8.19;100.00;100359.69;5069800;28;20174;-75
2021/05/19 04:25:48;;;;;;;9.53;5.30;;;;;;;8.19;100.00;100362.41;5070504;28;20384;-76
2021/05/19 04:28:14;;;;;;;5.70;4.43;;;;;;;8.14;100.00;100360.59;5069743;28;20214;-75
2021/05/19 04:30:40;;;;;;;3.23;3.00;;;;;;;8.12;100.00;100364.72;5071032;28;20269;-74
2021/05/19 04:33:06;;;;;;;4.73;4.33;;;;;;;8.06;100.00;100366.72;5071075;28;20175;-74
2021/05/19 04:35:32;;;;;;;4.90;4.30;;;;;;;8.03;100.00;100372.75;5069452;28;20227;-74
2021/05/19 04:37:59;;;;;;;4.70;4.13;;;;;;;8.02;100.00;100374.66;5070856;28;20622;-75
2021/05/19 04:40:25;;;;;;;5.37;4.87;;;;;;;8.03;100.00;100383.63;5071324;28;20182;-75
2021/05/19 04:42:50;;;;;;;5.40;3.23;;;;;;;8.01;100.00;100385.84;5071355;28;20178;-74
2021/05/19 04:45:16;;;;;;;4.27;3.97;;;;;;;8.00;100.00;100385.03;5070906;28;20178;-74
2021/05/19 04:47:41;;;;;;;3.37;3.13;;;;;;;7.95;100.00;100395.97;5070643;28;20182;-74
2021/05/19 04:50:10;;;;;;;3.27;3.07;;;;;;;7.91;100.00;100405.84;5069409;28;20582;-74
2021/05/19 04:52:35;;;;;;;5.00;4.53;;;;;;;7.88;100.00;100394.75;5070707;28;20194;-76
2021/05/19 04:55:04;;;;;;;5.07;4.57;;;;;;;7.87;100.00;100398.56;5070577;28;20206;-74
2021/05/19 04:57:29;;;;;;;4.43;3.93;;;;;;;7.85;100.00;100398.06;5070681;28;20585;-74
2021/05/19 04:59:54;;;;;;;5.13;4.73;;;;;;;7.87;100.00;100404.81;5070509;28;20214;-73
2021/05/19 05:02:20;;;;;;;9.00;6.27;;;;;;;7.95;100.00;100408.75;5070658;28;20180;-75
2021/05/19 05:04:45;;;;;;;6.67;5.07;;;;;;;8.00;100.00;100414.16;5070577;28;20263;-74
2021/05/19 05:07:10;;;;;;;3.17;2.90;;;;;;;8.07;100.00;100407.22;5070723;28;20200;-75
2021/05/19 05:09:36;;;;;;;3.23;2.07;;;;;;;8.15;99.99;100416.63;5070079;28;20205;-74
2021/05/19 05:12:01;;;;;;;9.50;5.43;;;;;;;8.22;99.54;100416.25;5070550;28;20205;-74
2021/05/19 05:14:26;;;;;;;6.87;3.87;;;;;;;8.31;100.00;100412.56;5070408;28;20234;-75
2021/05/19 05:16:52;;;;;;;4.97;4.50;;;;;;;8.38;99.16;100416.84;5070458;28;20240;-76
2021/05/19 05:19:17;;;;;;;7.77;4.40;;;;;;;8.50;99.78;100422.63;5070448;28;20556;-75
2021/05/19 05:21:43;;;;;;;3.23;3.00;;;;;;;8.51;99.21;100414.16;5070343;28;20220;-75
2021/05/19 05:24:08;;;;;;;4.00;2.50;;;;;;;8.52;98.18;100417.69;5070340;28;20670;-75
2021/05/19 05:26:34;;;;;;;5.37;4.87;;;;;;;8.55;98.03;100411.69;5069261;28;20179;-74
2021/05/19 05:28:59;;;;;;;3.87;3.57;;;;;;;8.56;97.65;100422.28;5070522;28;20224;-74
2021/05/19 05:31:24;;;;;;;6.10;4.47;;;;;;;8.59;97.41;100420.84;5070330;28;20178;-73
2021/05/19 05:33:50;;;;;;;4.87;4.37;;;;;;;8.64;97.88;100413.41;5070242;28;20212;-75
2021/05/19 05:36:16;;;;;;;2.57;2.37;;;;;;;8.65;97.72;100419.66;5070140;28;20170;-76
2021/05/19 05:38:41;;;;;;;5.10;4.70;;;;;;;8.62;97.68;100422.97;5072314;28;20243;-74
2021/05/19 05:41:07;;;;;;;3.83;3.53;;;;;;;8.62;98.06;100420.25;5074112;28;20174;-75
2021/05/19 05:43:32;;;;;;;4.33;4.00;;;;;;;8.54;97.42;100413.59;5074093;28;20175;-75
2021/05/19 05:45:57;;;;;;;6.13;5.17;;;;;;;8.58;97.63;100419.25;5074054;28;20183;-75
2021/05/19 05:48:23;;;;;;;6.53;6.03;;;;;;;8.63;97.61;100419.94;5073843;28;20175;-75
2021/05/19 05:50:48;;;;;;;5.73;5.23;;;;;;;8.70;98.22;100421.50;5073919;28;20179;-75
2021/05/19 05:53:13;;;;;;;6.37;5.87;;;;;;;8.80;98.12;100427.56;5073741;28;20605;-75
2021/05/19 05:55:39;;;;;;;4.87;4.40;;;;;;;8.90;97.69;100435.56;5073777;28;20181;-74
2021/05/19 05:58:04;;;;;;;3.23;3.03;;;;;;;8.94;96.79;100431.09;5073682;28;20185;-76
2021/05/19 06:00:30;;;;;;;3.53;3.23;;;;;;;9.00;96.61;100433.75;5073650;28;20194;-73
2021/05/19 06:02:55;;;;;;;7.50;4.37;;;;;;;9.08;96.23;100430.31;5073744;28;20178;-76
2021/05/19 06:05:21;;;;;;;4.60;4.23;;;;;;;9.21;95.24;100437.69;5073497;28;20181;-75
2021/05/19 06:07:46;;;;;;;3.73;3.40;;;;;;;9.26;95.00;100434.91;5073848;28;20186;-75
2021/05/19 06:10:13;;;;;;;6.27;4.13;;;;;;;9.31;94.19;100440.22;5073598;28;20642;-75
2021/05/19 06:12:39;;;;;;;2.97;2.73;;;;;;;9.33;94.50;100440.75;5073541;28;20206;-73
2021/05/19 06:15:05;;;;;;;4.27;3.87;;;;;;;9.31;94.30;100451.13;5073922;28;20260;-74
2021/05/19 06:17:31;;;;;;;4.77;4.40;;;;;;;9.40;94.75;100457.53;5073276;28;20175;-75
2021/05/19 06:19:56;;;;;;;3.87;3.57;;;;;;;9.57;94.39;100456.91;5073338;28;20217;-74
2021/05/19 06:22:21;;;;;;;5.33;4.67;;;;;;;9.72;93.84;100455.78;5073287;28;20235;-74
2021/05/19 06:24:47;;;;;;;4.27;3.87;;;;;;;9.70;93.35;100453.34;5073292;28;20182;-75
2021/05/19 06:27:13;;;;;;;5.17;4.20;;;;;;;9.70;93.13;100461.53;5071884;28;20174;-74
2021/05/19 06:29:39;;;;;;;3.50;3.20;;;;;;;9.75;93.44;100458.69;5073045;28;20178;-75
2021/05/19 06:32:06;;;;;;;4.17;3.87;;;;;;;9.90;93.68;100459.47;5073087;28;20179;-74
2021/05/19 06:34:31;;;;;;;4.93;4.50;;;;;;;9.91;91.87;100461.91;5073132;28;20206;-75
2021/05/19 06:36:57;;;;;;;4.33;3.93;;;;;;;9.94;91.60;100465.94;5073239;28;20572;-74
2021/05/19 06:39:23;;;;;;;4.87;4.47;;;;;;;9.88;90.45;100462.50;5071541;28;20289;-74
2021/05/19 06:41:51;;;;;;;3.60;3.30;;;;;;;9.90;90.17;100463.00;5072912;28;20194;-75
2021/05/19 06:44:18;;;;;;;4.23;3.80;;;;;;;9.93;89.90;100467.03;5072865;28;20182;-74
2021/05/19 06:46:44;;;;;;;3.97;3.63;;;;;;;10.01;89.85;100461.69;5072948;28;20204;-74
2021/05/19 06:49:09;;;;;;;5.07;4.57;;;;;;;10.16;89.99;100466.00;5072103;28;20559;-74
2021/05/19 06:51:35;;;;;;;9.43;3.00;;;;;;;10.21;88.90;100462.31;5072779;28;20227;-74
2021/05/19 06:54:01;;;;;;;4.47;4.07;;;;;;;10.18;87.61;100460.22;5072687;28;20198;-74
2021/05/19 06:56:27;;;;;;;3.50;2.27;;;;;;;10.26;88.10;100464.97;5072666;28;20257;-74
2021/05/19 06:58:53;;;;;;;4.03;3.73;;;;;;;10.33;86.90;100462.63;5072568;28;20193;-75
2021/05/19 07:01:18;;;;;;;4.80;4.40;;;;;;;10.42;86.27;100460.78;5072511;28;20171;-74
2021/05/19 07:03:43;;;;;;;4.07;3.77;;;;;;;10.54;86.96;100461.00;5071287;28;20668;-74
2021/05/19 07:06:09;;;;;;;4.10;2.70;;;;;;;10.67;86.15;100462.06;5072644;28;20174;-74
2021/05/19 07:08:34;;;;;;;3.70;3.40;;;;;;;10.72;85.74;100467.41;5072307;28;20175;-74
2021/05/19 07:11:00;;;;;;;3.50;3.20;;;;;;;10.73;85.12;100463.56;5072388;28;20309;-75
2021/05/19 07:13:28;;;;;;;4.60;3.67;;;;;;;10.77;83.81;100466.47;5072123;28;20288;-74
2021/05/19 07:15:54;;;;;;;4.13;3.73;;;;;;;10.91;84.54;100468.00;5072709;28;20186;-74
2021/05/19 07:18:20;;;;;;;3.23;2.60;;;;;;;10.98;83.72;100464.81;5072209;28;20180;-74
2021/05/19 07:20:46;;;;;;;4.00;3.70;;;;;;;11.10;83.32;100469.72;5072145;28;20175;-74
2021/05/19 07:23:12;;;;;;;3.57;2.53;;;;;;;11.22;83.32;100467.19;5072348;28;20192;-74
2021/05/19 07:25:37;;;;;;;2.23;1.90;;;;;;;11.32;83.83;100472.41;5071417;28;20174;-74
2021/05/19 07:28:04;;;;;;;3.97;3.57;;;;;;;11.36;82.70;100470.63;5072142;28;20174;-74
2021/05/19 07:30:30;;;;;;;2.80;2.60;;;;;;;11.46;81.50;100478.56;5073368;28;20178;-73
2021/05/19 07:32:56;;;;;;;2.23;2.03;;;;;;;11.57;81.64;100476.34;5073919;28;20211;-74
2021/05/19 07:35:21;;;;;;;3.03;2.80;;;;;;;11.51;80.26;100472.94;5073745;28;20198;-74
2021/05/19 07:37:47;;;;;;;3.27;2.97;;;;;;;11.60;78.45;100475.72;5072731;28;20170;-73
2021/05/19 07:40:13;;;;;;;3.67;3.27;;;;;;;11.69;78.33;100481.19;5071978;28;20170;-74
2021/05/19 07:42:38;;;;;;;3.10;2.80;;;;;;;11.78;78.06;100479.31;5071858;28;20167;-74
2021/05/19 07:45:05;;;;;;;2.53;2.30;;;;;;;11.97;78.46;100481.78;5071763;28;20171;-74
2021/05/19 07:47:31;;;;;;;1.67;1.57;;;;;;;11.68;77.25;100479.59;5071709;28;20177;-73
2021/05/19 07:49:56;;;;;;;3.47;2.67;;;;;;;11.67;79.45;100470.56;5071593;28;20174;-72
2021/05/19 07:52:22;;;;;;;1.60;1.10;;;;;;;11.75;79.22;100474.47;5072525;28;20190;-75
2021/05/19 07:54:48;;;;;;;2.23;2.00;;;;;;;11.85;77.39;100474.19;5073682;28;20206;-75
2021/05/19 07:57:24;;;;;;;1.77;1.67;;;;;;;11.99;75.39;100479.53;5072460;28;20175;-74
2021/05/19 08:00:06;;;;;;;1.93;1.83;;;;;;;12.27;76.82;100471.81;5071126;28;20265;-74
2021/05/19 08:02:32;;;;;;;2.47;2.27;;;;;;;12.23;75.90;100474.41;5069914;28;20645;-74
2021/05/19 08:04:57;;;;;;;3.70;2.30;;;;;;;12.25;75.92;100476.81;5071480;28;20171;-74
2021/05/19 08:07:23;;;;;;;1.80;1.70;;;;;;;11.97;77.35;100484.53;5071270;28;20600;-74
2021/05/19 08:09:48;;;;;;;2.10;1.80;;;;;;;11.73;77.79;100479.47;5070734;28;20213;-74
2021/05/19 08:12:14;;;;;;;3.20;2.90;;;;;;;11.77;77.79;100483.97;5066656;28;20191;-75
2021/05/19 08:14:39;;;;;;;2.40;2.30;;;;;;;12.03;79.24;100486.00;5065993;28;20298;-74
2021/05/19 08:17:04;;;;;;;1.47;1.37;;;;;;;12.24;74.88;100478.75;5061332;28;20614;-74
2021/05/19 08:19:30;;;;;;;3.00;2.80;;;;;;;12.20;74.76;100475.06;5067151;28;20189;-75
2021/05/19 08:21:55;;;;;;;1.70;1.60;;;;;;;12.43;74.63;100478.44;5070847;28;20178;-76
2021/05/19 08:24:21;;;;;;;2.27;2.07;;;;;;;12.64;75.34;100481.34;5071020;28;20174;-73
2021/05/19 08:26:46;;;;;;;2.13;2.00;;;;;;;12.58;73.68;100477.13;5070890;28;20174;-75
2021/05/19 08:29:11;;;;;;;3.07;2.37;;;;;;;12.52;73.06;100477.31;5070317;28;20182;-74
2021/05/19 08:31:37;;;;;;;2.40;2.20;;;;;;;12.62;75.00;100478.91;5070721;28;20257;-75
2021/05/19 08:34:02;;;;;;;1.40;1.30;;;;;;;12.53;71.21;100478.09;5070610;28;20198;-74
2021/05/19 08:36:28;;;;;;;1.30;1.20;;;;;;;12.44;72.38;100480.88;5070628;28;20257;-74
2021/05/19 08:38:54;;;;;;;2.37;2.17;;;;;;;12.73;72.40;100471.13;5067176;28;20187;-75
2021/05/19 08:41:20;;;;;;;1.10;1.07;;;;;;;12.68;71.13;100471.31;5069657;28;20181;-75
2021/05/19 08:43:45;;;;;;;1.53;1.43;;;;;;;12.67;71.33;100467.78;5058289;28;20175;-75
2021/05/19 08:46:12;;;;;;;5.03;1.90;;;;;;;12.82;71.94;100471.94;5048096;28;20175;-74
2021/05/19 08:48:38;;;;;;;1.70;1.60;;;;;;;12.95;69.19;100468.22;5053588;28;20623;-79
2021/05/19 08:51:05;;;;;;;2.10;1.90;;;;;;;13.00;69.46;100462.53;5062630;28;20194;-74
2021/05/19 08:53:32;;;;;;;1.10;1.00;;;;;;;13.17;68.35;100463.66;5063188;28;20669;-73
2021/05/19 08:55:58;;;;;;;1.43;1.33;;;;;;;13.26;70.83;100458.94;5064988;28;20656;-74
2021/05/19 08:58:24;;;;;;;1.50;1.40;;;;;;;13.42;70.08;100468.22;5069257;28;20179;-74
2021/05/19 09:00:49;;;;;;;1.70;1.60;;;;;;;13.51;65.07;100452.53;5069051;28;20563;-74
2021/05/19 09:03:17;;;;;;;1.63;1.53;;;;;;;13.72;67.72;100465.50;5070210;28;20186;-77
2021/05/19 09:05:44;;;;;;;0.93;0.90;;;;;;;13.55;66.85;100453.47;5070421;28;20178;-74
2021/05/19 09:08:15;;;;;;;2.27;2.07;;;;;;;13.42;68.28;100464.69;5070497;28;20174;-74
2021/05/19 09:10:41;;;;;;;1.43;1.33;;;;;;;13.28;66.92;100465.69;5070486;28;20170;-74
2021/05/19 09:13:27;;;;;;;1.60;1.50;;;;;;;13.07;67.18;100471.09;5073553;28;20177;-75
2021/05/19 09:15:52;;;;;;;1.23;1.13;;;;;;;12.84;67.06;100471.63;5074526;28;20178;-74
2021/05/19 09:18:18;;;;;;;1.50;1.33;;;;;;;12.59;68.95;100465.88;5074539;28;20189;-75
2021/05/19 09:20:50;;;;;;;1.43;1.33;;;;;;;12.73;69.92;100471.97;5074543;28;20170;-74
2021/05/19 09:23:22;;;;;;;1.40;1.30;;;;;;;12.86;68.63;100474.84;5074476;28;20166;-75
2021/05/19 09:26:10;;;;;;;2.57;1.07;;;;;;;12.98;66.81;100470.28;5074463;28;20170;-75
2021/05/19 09:28:36;;;;;;;1.53;1.43;;;;;;;12.96;69.08;100475.31;5074240;28;20357;-75
2021/05/19 09:31:01;;;;;;;1.60;1.50;;;;;;;13.05;69.69;100467.88;5074330;28;20181;-75
2021/05/19 09:33:28;;;;;;;1.60;1.50;;;;;;;12.94;70.46;100457.56;5072856;28;20197;-74
2021/05/19 09:36:09;;;;;;;2.03;1.47;;;;;;;12.76;70.02;100476.00;5074170;28;20409;-74
2021/05/19 09:38:34;;;;;;;2.13;1.43;;;;;;;12.97;69.74;100471.44;5074347;28;20280;-74
2021/05/19 09:41:20;;;;;;;1.40;1.27;;;;;;;13.24;68.63;100463.97;5074238;28;20257;-75
2021/05/19 09:43:46;;;;;;;1.10;1.10;;;;;;;13.54;68.66;100468.34;5074156;28;20182;-74
2021/05/19 09:46:24;;;;;;;0.53;0.53;;;;;;;13.79;64.60;100458.34;5074039;28;20175;-75
2021/05/19 09:49:11;;;;;;;0.50;0.50;;;;;;;14.07;62.49;100447.66;5073955;28;20221;-74
2021/05/19 09:51:37;;;;;;;0.50;0.50;;;;;;;14.26;60.71;100450.75;5073969;28;20178;-74
2021/05/19 09:54:02;;;;;;;0.50;0.50;;;;;;;14.22;56.72;100449.81;5073742;28;20224;-75
2021/05/19 09:56:28;;;;;;;0.10;0.10;;;;;;;14.19;57.02;100456.00;5073706;28;20175;-73
2021/05/19 09:58:53;;;;;;;0.40;0.40;;;;;;;14.14;57.94;100463.59;5072841;28;20220;-74
2021/05/19 10:01:19;;;;;;;0.30;0.30;;;;;;;14.34;56.04;100456.53;5073319;28;20210;-74
2021/05/19 10:03:44;;;;;;;0.40;0.40;;;;;;;14.27;57.83;100462.53;5073246;28;20171;-75
2021/05/19 10:06:28;;;;;;;0.50;0.50;;;;;;;14.41;60.79;100465.00;5073352;28;20536;-75
2021/05/19 10:08:53;;;;;;;1.43;0.47;;;;;;;14.17;57.46;100461.00;5073596;28;20240;-74
2021/05/19 10:11:18;;;;;;;0.50;0.50;;;;;;;14.33;57.14;100463.16;5073142;28;20614;-74
2021/05/19 10:13:45;;;;;;;0.40;0.40;;;;;;;14.30;59.46;100456.38;5073046;28;20222;-74
2021/05/19 10:16:16;;;;;;;0.30;0.30;;;;;;;14.29;60.62;100458.31;5073096;28;20638;-75
2021/05/19 10:18:48;;;;;;;1.00;0.73;;;;;;;13.97;58.29;100456.28;5066785;28;20332;-74
2021/05/19 10:21:16;;;;;;;0.40;0.40;;;;;;;14.06;60.04;100451.56;5066075;28;20225;-74
2021/05/19 10:24:01;;;;;;;0.60;0.60;;;;;;;13.84;59.02;100449.91;5054917;28;20187;-73
2021/05/19 10:26:26;;;;;;;0.60;0.60;;;;;;;13.93;58.27;100441.63;5072773;28;20224;-75
2021/05/19 10:28:52;;;;;;;0.93;0.93;;;;;;;13.87;60.12;100448.44;5070712;28;20182;-74
2021/05/19 10:31:24;;;;;;;0.93;0.50;;;;;;;13.84;59.94;100446.38;5069858;28;20190;-74
2021/05/19 10:33:50;;;;;;;0.57;0.30;;;;;;;13.86;59.80;100428.41;5064989;28;20232;-75
2021/05/19 10:36:25;;;;;;;0.40;0.40;;;;;;;14.00;58.08;100439.16;5072812;28;20197;-74
2021/05/19 10:39:08;;;;;;;0.40;0.40;;;;;;;14.12;58.21;100439.22;5071292;28;20680;-74
2021/05/19 10:41:38;;;;;;;0.60;0.60;;;;;;;14.22;58.64;100432.53;5071962;28;20584;-75
2021/05/19 10:44:10;;;;;;;0.23;0.23;;;;;;;14.24;57.82;100431.03;5072401;28;20192;-74
2021/05/19 10:46:49;;;;;;;0.33;0.33;;;;;;;14.27;58.83;100435.06;5071407;28;20720;-75
2021/05/19 10:49:18;;;;;;;2.03;0.77;;;;;;;14.30;57.08;100429.69;5072382;28;20190;-75
2021/05/19 10:51:48;;;;;;;0.40;0.30;;;;;;;14.45;58.65;100424.75;5072516;28;20637;-75
2021/05/19 11:00:13;;;;;;;0.70;0.43;;;;;;;15.09;56.28;100427.00;5068994;28;20259;-75
2021/05/19 11:02:54;;;;;;;0.27;0.27;;;;;;;15.32;56.07;100422.63;5064641;28;20733;-75
2021/05/19 11:05:21;;;;;;;0.40;0.40;;;;;;;15.64;59.06;100417.41;5072382;28;20648;-75
2021/05/19 11:08:07;;;;;;;0.60;0.60;;;;;;;15.68;57.64;100421.84;5072380;28;20642;-75
2021/05/19 11:10:35;;;;;;;0.57;0.57;;;;;;;15.47;55.95;100421.13;5071613;28;20540;-75
2021/05/19 11:13:01;;;;;;;0.60;0.60;;;;;;;14.88;55.87;100416.84;5072555;28;20544;-75
2021/05/19 11:21:15;;;;;;;0.77;0.77;;;;;;;15.77;58.16;100428.06;5069229;28;20195;-75
2021/05/19 11:23:42;;;;;;;0.70;0.70;;;;;;;15.72;55.48;100420.00;5072304;28;20178;-75
2021/05/19 11:26:08;;;;;;;1.20;1.10;;;;;;;15.56;55.34;100421.03;5071773;28;20175;-75
2021/05/19 11:28:34;;;;;;;1.33;0.90;;;;;;;15.46;55.85;100420.34;5069169;28;20665;-75
2021/05/19 11:31:08;;;;;;;0.80;0.67;;;;;;;15.32;58.10;100425.38;5071080;28;20261;-75
2021/05/19 11:33:49;;;;;;;0.83;0.83;;;;;;;15.51;56.84;100421.28;5070313;28;20648;-75
2021/05/19 11:36:28;;;;;;;0.90;0.87;;;;;;;15.55;56.43;100416.66;5072273;28;20198;-75
2021/05/19 11:38:53;;;;;;;0.87;0.67;;;;;;;15.66;57.15;100421.41;5057902;28;20167;-75